createdAt,value
2023-03-29T00:01:34.892Z,2.72
2023-03-29T00:04:04.396Z,1.85
2023-03-29T00:06:33.221Z,3.33
2023-03-29T00:09:01.726Z,4.57
2023-03-29T00:11:28.901Z,2.33
2023-03-29T00:13:55.942Z,2.58
2023-03-29T00:16:24.150Z,3.03
2023-03-29T00:18:51.179Z,2.78
2023-03-29T00:21:18.231Z,2.28
2023-03-29T00:23:45.742Z,3.75
2023-03-29T00:26:12.795Z,3.58
2023-03-29T00:28:39.890Z,3.10
2023-03-29T00:31:08.624Z,2.17
2023-03-29T00:33:35.775Z,4.75
2023-03-29T00:36:04.379Z,3.38
2023-03-29T00:38:31.674Z,5.15
2023-03-29T00:40:58.907Z,2.83
2023-03-29T00:43:26.036Z,6.18
2023-03-29T00:45:53.391Z,4.32
2023-03-29T00:48:22.361Z,5.28
2023-03-29T00:50:49.421Z,5.05
2023-03-29T00:53:28.459Z,3.25
2023-03-29T00:56:01.647Z,3.10
2023-03-29T00:58:31.344Z,3.72
2023-03-29T01:01:02.476Z,3.90
2023-03-29T01:03:33.010Z,4.22
2023-03-29T01:06:02.394Z,6.32
2023-03-29T01:08:32.911Z,6.13
2023-03-29T01:11:13.344Z,5.07
2023-03-29T01:13:42.648Z,3.70
2023-03-29T01:16:11.911Z,3.75
2023-03-29T01:18:39.684Z,6.05
2023-03-29T01:21:20.349Z,4.55
2023-03-29T01:24:08.688Z,2.83
2023-03-29T01:26:48.896Z,4.55
2023-03-29T01:29:27.229Z,4.30
2023-03-29T01:32:00.124Z,4.80
2023-03-29T01:34:35.942Z,4.05
2023-03-29T01:37:09.523Z,4.05
2023-03-29T01:39:36.678Z,4.43
2023-03-29T01:42:22.469Z,4.10
2023-03-29T01:44:56.351Z,4.72
2023-03-29T01:47:46.199Z,7.15
2023-03-29T01:50:18.606Z,2.28
2023-03-29T01:52:51.729Z,3.92
2023-03-29T01:55:21.287Z,3.08
2023-03-29T01:57:49.479Z,6.03
2023-03-29T02:00:19.208Z,5.57
2023-03-29T02:02:46.970Z,3.92
2023-03-29T02:05:15.424Z,4.60
2023-03-29T02:07:43.566Z,4.07
2023-03-29T02:10:13.671Z,4.18
2023-03-29T02:12:41.148Z,4.07
2023-03-29T02:15:12.459Z,7.40
2023-03-29T02:17:39.608Z,5.45
2023-03-29T02:20:17.336Z,4.18
2023-03-29T02:22:48.491Z,3.58
2023-03-29T02:25:15.927Z,5.07
2023-03-29T02:27:43.046Z,11.27
2023-03-29T02:30:12.033Z,4.13
2023-03-29T02:32:50.565Z,3.78
2023-03-29T02:35:44.890Z,5.00
2023-03-29T02:38:12.103Z,5.32
2023-03-29T02:40:40.649Z,7.18
2023-03-29T02:43:08.450Z,4.65
2023-03-29T02:45:36.812Z,6.57
2023-03-29T02:48:06.621Z,5.65
2023-03-29T02:50:38.549Z,7.57
2023-03-29T02:53:08.223Z,2.88
2023-03-29T02:55:36.133Z,3.20
2023-03-29T02:58:07.990Z,5.03
2023-03-29T03:00:37.031Z,4.10
2023-03-29T03:03:05.278Z,5.85
2023-03-29T03:05:32.599Z,6.47
2023-03-29T03:07:59.740Z,5.45
2023-03-29T03:10:26.875Z,7.20
2023-03-29T03:12:53.993Z,5.05
2023-03-29T03:15:21.002Z,5.07
2023-03-29T03:17:49.302Z,4.10
2023-03-29T03:20:16.489Z,5.88
2023-03-29T03:22:45.529Z,6.15
2023-03-29T03:25:13.114Z,4.28
2023-03-29T03:27:41.282Z,6.03
2023-03-29T03:30:08.714Z,5.75
2023-03-29T03:32:36.487Z,6.95
2023-03-29T03:35:07.494Z,6.47
2023-03-29T03:37:34.752Z,6.60
2023-03-29T03:40:05.586Z,8.45
2023-03-29T03:42:32.605Z,7.57
2023-03-29T03:45:02.717Z,7.25
2023-03-29T03:47:30.735Z,7.88
2023-03-29T03:49:58.185Z,5.60
2023-03-29T03:52:27.508Z,6.03
2023-03-29T03:54:54.557Z,6.15
2023-03-29T03:57:22.810Z,10.30
2023-03-29T03:59:49.943Z,7.75
2023-03-29T04:02:17.894Z,6.25
2023-03-29T04:04:44.989Z,6.88
2023-03-29T04:07:13.140Z,5.88
2023-03-29T04:09:40.481Z,5.93
2023-03-29T04:12:07.613Z,5.57
2023-03-29T04:14:35.571Z,7.07
2023-03-29T04:17:02.611Z,8.82
2023-03-29T04:19:29.617Z,8.82
2023-03-29T04:21:56.701Z,7.43
2023-03-29T04:24:24.472Z,5.03
2023-03-29T04:26:51.537Z,7.18
2023-03-29T04:29:18.526Z,5.88
2023-03-29T04:31:45.845Z,6.82
2023-03-29T04:34:13.149Z,6.50
2023-03-29T04:36:40.242Z,8.25
2023-03-29T04:39:07.905Z,6.30
2023-03-29T04:41:35.292Z,10.98
2023-03-29T04:44:02.657Z,7.15
2023-03-29T04:46:30.155Z,5.68
2023-03-29T04:48:57.322Z,6.50
2023-03-29T04:51:24.481Z,8.02
2023-03-29T04:53:51.809Z,6.35
2023-03-29T04:56:18.923Z,7.63
2023-03-29T04:58:46.046Z,5.38
2023-03-29T05:01:13.372Z,5.30
2023-03-29T05:03:40.488Z,5.88
2023-03-29T05:06:08.738Z,6.30
2023-03-29T05:08:38.885Z,7.07
2023-03-29T05:11:07.299Z,5.55
2023-03-29T05:13:34.925Z,6.30
2023-03-29T05:16:02.447Z,7.75
2023-03-29T05:18:29.946Z,6.90
2023-03-29T05:20:57.876Z,7.88
2023-03-29T05:23:25.108Z,8.82
2023-03-29T05:25:55.989Z,6.68
2023-03-29T05:28:23.124Z,8.35
2023-03-29T05:31:01.088Z,5.70
2023-03-29T05:33:28.802Z,7.82
2023-03-29T05:35:59.673Z,7.88
2023-03-29T05:38:26.716Z,8.20
2023-03-29T05:40:53.876Z,6.13
2023-03-29T05:43:20.881Z,7.03
2023-03-29T05:45:47.938Z,6.82
2023-03-29T05:48:15.094Z,6.22
2023-03-29T05:50:46.860Z,6.63
2023-03-29T05:53:13.921Z,6.30
2023-03-29T05:55:42.401Z,6.93
2023-03-29T05:58:12.172Z,6.68
2023-03-29T06:00:39.508Z,8.05
2023-03-29T06:03:17.562Z,8.85
2023-03-29T06:05:49.666Z,7.72
2023-03-29T06:08:17.200Z,6.88
2023-03-29T06:10:45.405Z,8.43
2023-03-29T06:13:12.808Z,7.47
2023-03-29T06:15:40.209Z,6.95
2023-03-29T06:18:07.557Z,7.95
2023-03-29T06:20:34.640Z,7.63
2023-03-29T06:23:01.726Z,9.18
2023-03-29T06:25:28.849Z,7.45
2023-03-29T06:27:55.992Z,10.77
2023-03-29T06:30:23.285Z,5.65
2023-03-29T06:32:50.549Z,7.20
2023-03-29T06:35:18.337Z,6.43
2023-03-29T06:37:49.964Z,8.95
2023-03-29T06:40:19.173Z,6.95
2023-03-29T06:42:47.079Z,7.10
2023-03-29T06:45:14.617Z,5.88
2023-03-29T06:47:42.064Z,7.55
2023-03-29T06:50:09.348Z,6.50
2023-03-29T06:52:36.689Z,9.10
2023-03-29T06:55:07.611Z,7.53
2023-03-29T06:57:34.729Z,6.05
2023-03-29T07:00:01.917Z,6.50
2023-03-29T07:02:29.151Z,5.80
2023-03-29T07:04:56.301Z,8.35
2023-03-29T07:07:27.399Z,5.43
2023-03-29T07:09:55.488Z,8.23
2023-03-29T07:12:23.402Z,6.35
2023-03-29T07:14:50.526Z,7.40
2023-03-29T07:17:18.481Z,7.22
2023-03-29T07:19:45.666Z,4.78
2023-03-29T07:22:13.526Z,6.68
2023-03-29T07:24:41.276Z,5.60
2023-03-29T07:27:08.771Z,8.52
2023-03-29T07:29:36.105Z,5.88
2023-03-29T07:32:04.265Z,6.88
2023-03-29T07:34:32.666Z,6.47
2023-03-29T07:36:59.733Z,6.03
2023-03-29T07:39:27.820Z,6.35
2023-03-29T07:41:57.893Z,6.70
2023-03-29T07:44:25.135Z,6.30
2023-03-29T07:46:52.180Z,7.88
2023-03-29T07:49:20.999Z,5.35
2023-03-29T07:51:49.241Z,8.07
2023-03-29T07:54:16.294Z,5.88
2023-03-29T07:56:44.070Z,5.45
2023-03-29T07:59:11.590Z,5.28
2023-03-29T08:01:40.847Z,9.15
2023-03-29T08:04:08.334Z,6.35
2023-03-29T08:06:35.500Z,9.32
2023-03-29T08:09:02.564Z,4.75
2023-03-29T08:11:30.073Z,7.70
2023-03-29T08:13:58.965Z,6.90
2023-03-29T08:16:28.766Z,6.18
2023-03-29T08:18:55.893Z,5.60
2023-03-29T08:21:22.978Z,4.88
2023-03-29T08:23:50.106Z,6.00
2023-03-29T08:26:17.388Z,3.90
2023-03-29T08:28:44.816Z,5.60
2023-03-29T08:31:11.937Z,8.20
2023-03-29T08:33:39.164Z,3.42
2023-03-29T08:36:06.653Z,5.75
2023-03-29T08:38:33.774Z,5.35
2023-03-29T08:41:01.256Z,9.07
2023-03-29T08:43:31.344Z,5.05
2023-03-29T08:46:00.055Z,5.50
2023-03-29T08:48:31.907Z,6.15
2023-03-29T08:51:02.890Z,6.75
2023-03-29T08:53:33.346Z,4.00
2023-03-29T08:56:03.654Z,7.57
2023-03-29T08:58:33.005Z,5.05
2023-03-29T09:01:01.511Z,4.35
2023-03-29T09:03:37.456Z,4.65
2023-03-29T09:06:12.616Z,5.00
2023-03-29T09:08:44.597Z,4.80
2023-03-29T09:13:55.067Z,5.50
2023-03-29T09:16:28.081Z,9.25
2023-03-29T09:19:01.319Z,10.30
2023-03-29T09:21:28.314Z,6.68
2023-03-29T09:24:08.855Z,6.55
2023-03-29T09:26:41.770Z,5.07
2023-03-29T09:29:15.334Z,4.63
2023-03-29T09:31:44.414Z,6.18
2023-03-29T09:34:15.910Z,5.10
2023-03-29T09:36:53.802Z,6.03
2023-03-29T09:39:22.187Z,9.48
2023-03-29T09:41:55.668Z,4.78
2023-03-29T09:44:31.188Z,7.03
2023-03-29T09:47:21.467Z,5.53
2023-03-29T09:49:51.138Z,8.23
2023-03-29T09:52:20.799Z,7.00
2023-03-29T09:54:47.891Z,8.20
2023-03-29T09:57:17.123Z,4.85
2023-03-29T09:59:45.172Z,5.85
2023-03-29T10:02:13.039Z,5.05
2023-03-29T10:04:42.402Z,6.40
2023-03-29T10:07:20.482Z,4.93
2023-03-29T10:09:51.700Z,6.40
2023-03-29T10:12:18.771Z,3.50
2023-03-29T10:14:46.999Z,6.00
2023-03-29T10:17:16.535Z,5.00
2023-03-29T10:19:54.151Z,4.43
2023-03-29T10:22:28.396Z,6.22
2023-03-29T10:24:56.162Z,7.78
2023-03-29T10:27:25.682Z,5.53
2023-03-29T10:29:52.885Z,7.05
2023-03-29T10:32:25.523Z,7.20
2023-03-29T10:34:53.009Z,4.47
2023-03-29T10:37:21.276Z,5.15
2023-03-29T10:39:48.923Z,5.65
2023-03-29T10:42:17.480Z,4.40
2023-03-29T10:44:53.342Z,5.22
2023-03-29T10:47:21.491Z,4.85
2023-03-29T10:49:56.824Z,4.13
2023-03-29T10:52:24.302Z,5.93
2023-03-29T10:54:52.238Z,5.55
2023-03-29T10:57:34.652Z,4.90
2023-03-29T11:00:02.400Z,4.97
2023-03-29T11:02:39.131Z,5.65
2023-03-29T11:05:15.656Z,4.47
2023-03-29T11:07:55.633Z,4.57
2023-03-29T11:10:44.006Z,6.28
2023-03-29T11:13:20.720Z,7.45
2023-03-29T11:15:56.928Z,5.50
2023-03-29T11:18:27.324Z,6.35
2023-03-29T11:21:03.409Z,5.03
2023-03-29T11:23:48.068Z,7.05
2023-03-29T11:26:26.496Z,4.82
2023-03-29T11:28:58.952Z,4.70
2023-03-29T11:31:31.956Z,5.70
2023-03-29T11:34:02.276Z,6.50
2023-03-29T11:36:44.620Z,6.55
2023-03-29T11:39:14.631Z,5.20
2023-03-29T11:41:45.677Z,4.25
2023-03-29T11:44:18.493Z,4.32
2023-03-29T11:46:48.614Z,5.68
2023-03-29T11:49:20.088Z,5.32
2023-03-29T11:51:57.374Z,4.65
2023-03-29T11:54:51.523Z,5.57
2023-03-29T11:57:39.187Z,5.57
2023-03-29T12:00:21.419Z,5.25
2023-03-29T12:02:53.200Z,3.95
2023-03-29T12:05:25.891Z,7.07
2023-03-29T12:07:56.343Z,5.90
2023-03-29T12:10:26.793Z,6.20
2023-03-29T12:13:00.951Z,7.95
2023-03-29T12:15:29.519Z,6.43
2023-03-29T12:18:07.660Z,5.75
2023-03-29T12:20:37.442Z,6.80
2023-03-29T12:23:06.028Z,7.57
2023-03-29T12:25:52.116Z,11.57
2023-03-29T12:28:38.751Z,6.50
2023-03-29T12:31:05.794Z,5.70
2023-03-29T12:33:41.827Z,6.15
2023-03-29T12:36:31.811Z,6.82
2023-03-29T12:38:59.006Z,6.65
2023-03-29T12:41:26.415Z,5.80
2023-03-29T12:43:53.464Z,7.38
2023-03-29T12:46:27.589Z,9.68
2023-03-29T12:48:58.596Z,8.40
2023-03-29T12:51:32.822Z,4.25
2023-03-29T12:54:07.570Z,6.88
2023-03-29T12:56:42.117Z,8.00
2023-03-29T12:59:12.418Z,5.35
2023-03-29T13:01:43.217Z,6.45
2023-03-29T13:04:19.370Z,7.17
2023-03-29T13:06:50.515Z,5.63
2023-03-29T13:11:45.721Z,6.05
2023-03-29T13:14:18.913Z,7.28
2023-03-29T13:16:46.159Z,7.60
2023-03-29T13:19:32.080Z,6.40
2023-03-29T13:22:35.598Z,5.70
2023-03-29T13:25:11.875Z,6.40
2023-03-29T13:27:51.014Z,6.00
2023-03-29T13:30:22.310Z,6.85
2023-03-29T13:33:08.093Z,6.80
2023-03-29T13:35:41.498Z,6.65
2023-03-29T13:38:08.551Z,5.22
2023-03-29T13:40:42.851Z,6.25
2023-03-29T13:43:09.885Z,7.82
2023-03-29T13:45:38.817Z,5.82
2023-03-29T13:48:22.517Z,6.72
2023-03-29T13:50:53.912Z,6.40
2023-03-29T13:53:29.989Z,6.35
2023-03-29T13:55:58.411Z,4.38
2023-03-29T13:58:44.345Z,6.68
2023-03-29T14:01:16.332Z,7.07
2023-03-29T14:03:46.933Z,5.93
2023-03-29T14:06:15.783Z,7.97
2023-03-29T14:08:44.202Z,7.63
2023-03-29T14:11:28.481Z,5.55
2023-03-29T14:13:57.056Z,5.18
2023-03-29T14:16:27.119Z,7.45
2023-03-29T14:18:55.305Z,6.68
2023-03-29T14:21:22.393Z,6.63
2023-03-29T14:23:55.006Z,6.07
2023-03-29T14:26:23.990Z,7.68
2023-03-29T14:28:56.552Z,6.65
2023-03-29T14:31:30.380Z,6.00
2023-03-29T14:33:58.196Z,5.82
2023-03-29T14:36:26.315Z,7.63
2023-03-29T14:38:59.509Z,6.53
2023-03-29T14:41:30.340Z,5.45
2023-03-29T14:43:57.822Z,3.85
2023-03-29T14:46:25.728Z,5.85
2023-03-29T14:48:53.040Z,9.35
2023-03-29T14:51:20.482Z,5.93
2023-03-29T14:53:47.923Z,5.40
2023-03-29T14:56:18.101Z,4.88
2023-03-29T14:58:49.480Z,3.97
2023-03-29T15:01:17.806Z,4.55
2023-03-29T15:03:45.118Z,5.72
2023-03-29T15:06:12.850Z,4.18
2023-03-29T15:08:44.100Z,6.72
2023-03-29T15:11:23.256Z,7.00
2023-03-29T15:13:52.731Z,5.15
2023-03-29T15:16:21.095Z,6.43
2023-03-29T15:18:49.903Z,6.55
2023-03-29T15:21:18.241Z,6.38
2023-03-29T15:23:52.424Z,6.13
2023-03-29T15:26:23.748Z,7.20
2023-03-29T15:28:55.645Z,8.32
2023-03-29T15:33:51.024Z,5.50
2023-03-29T15:36:18.462Z,7.57
2023-03-29T15:38:50.438Z,7.32
2023-03-29T15:41:17.532Z,6.35
2023-03-29T15:43:44.608Z,9.25
2023-03-29T15:46:14.686Z,9.05
2023-03-29T15:48:42.008Z,7.15
2023-03-29T15:51:11.489Z,8.07
2023-03-29T15:53:38.593Z,6.88
2023-03-29T15:56:07.461Z,9.15
2023-03-29T15:58:35.461Z,8.60
2023-03-29T16:01:33.554Z,6.88
2023-03-29T16:04:04.919Z,7.78
2023-03-29T16:06:33.368Z,7.65
2023-03-29T16:09:00.642Z,8.60
2023-03-29T16:11:28.317Z,7.22
2023-03-29T16:13:56.389Z,8.85
2023-03-29T16:16:23.867Z,9.35
2023-03-29T16:18:51.166Z,11.52
2023-03-29T16:21:19.792Z,9.10
2023-03-29T16:23:47.281Z,10.38
2023-03-29T16:26:16.162Z,10.32
2023-03-29T16:28:43.359Z,9.27
2023-03-29T16:31:11.771Z,9.68
2023-03-29T16:33:39.047Z,8.60
2023-03-29T16:36:06.672Z,13.13
2023-03-29T16:38:34.219Z,8.73
2023-03-29T16:41:01.655Z,10.05
2023-03-29T16:43:29.194Z,10.98
2023-03-29T16:45:57.002Z,10.07
2023-03-29T16:48:24.294Z,9.13
2023-03-29T16:50:51.760Z,10.07
2023-03-29T16:53:19.664Z,11.98
2023-03-29T16:55:47.872Z,15.88
2023-03-29T16:58:15.352Z,10.05
2023-03-29T17:00:44.391Z,11.07
2023-03-29T17:03:12.896Z,9.02
2023-03-29T17:05:41.839Z,11.63
2023-03-29T17:08:10.170Z,8.52
2023-03-29T17:10:37.464Z,11.23
2023-03-29T17:13:04.504Z,9.85
2023-03-29T17:15:31.700Z,10.75
2023-03-29T17:17:58.903Z,10.80
2023-03-29T17:20:26.136Z,10.90
2023-03-29T17:22:55.882Z,8.70
2023-03-29T17:25:23.584Z,9.25
2023-03-29T17:27:51.356Z,13.05
2023-03-29T17:30:18.492Z,10.23
2023-03-29T17:32:45.811Z,11.18
2023-03-29T17:35:13.221Z,10.73
2023-03-29T17:37:41.876Z,9.93
2023-03-29T17:40:15.228Z,11.38
2023-03-29T17:42:42.887Z,9.88
2023-03-29T17:45:10.879Z,10.25
2023-03-29T17:47:38.654Z,11.38
2023-03-29T17:50:06.941Z,12.65
2023-03-29T17:52:34.391Z,12.23
2023-03-29T17:55:01.485Z,13.35
2023-03-29T17:57:28.932Z,11.52
2023-03-29T17:59:56.066Z,11.18
2023-03-29T18:02:24.539Z,11.43
2023-03-29T18:04:51.790Z,12.40
2023-03-29T18:07:18.929Z,13.85
2023-03-29T18:09:46.091Z,14.80
2023-03-29T18:12:13.112Z,12.00
2023-03-29T18:14:40.154Z,16.15
2023-03-29T18:17:07.290Z,10.82
2023-03-29T18:19:34.507Z,13.93
2023-03-29T18:22:01.556Z,13.02
2023-03-29T18:24:28.821Z,13.27
2023-03-29T18:26:56.025Z,13.07
2023-03-29T18:29:23.866Z,12.13
2023-03-29T18:31:51.226Z,13.18
2023-03-29T18:34:18.386Z,16.85
2023-03-29T18:36:45.410Z,14.23
2023-03-29T18:39:13.506Z,11.93
2023-03-29T18:41:40.563Z,14.48
2023-03-29T18:44:07.720Z,12.75
2023-03-29T18:46:35.066Z,13.95
2023-03-29T18:49:02.651Z,15.85
2023-03-29T18:51:30.955Z,15.85
2023-03-29T18:53:58.116Z,15.23
2023-03-29T18:56:25.611Z,15.20
2023-03-29T18:58:52.727Z,14.18
2023-03-29T19:01:19.963Z,15.38
2023-03-29T19:03:48.024Z,13.73
2023-03-29T19:06:15.447Z,15.15
2023-03-29T19:08:42.609Z,14.70
2023-03-29T19:11:11.243Z,15.40
2023-03-29T19:13:38.331Z,16.98
2023-03-29T19:16:05.887Z,13.07
2023-03-29T19:18:33.657Z,12.48
2023-03-29T19:21:00.998Z,14.02
2023-03-29T19:23:28.164Z,22.60
2023-03-29T19:25:56.171Z,15.80
2023-03-29T19:28:23.732Z,15.43
2023-03-29T19:30:50.917Z,15.73
2023-03-29T19:33:18.361Z,19.70
2023-03-29T19:35:45.603Z,19.55
2023-03-29T19:38:12.656Z,16.10
2023-03-29T19:40:39.702Z,13.27
2023-03-29T19:43:08.476Z,14.82
2023-03-29T19:45:36.562Z,16.30
2023-03-29T19:48:04.454Z,13.38
2023-03-29T19:50:33.807Z,15.55
2023-03-29T19:53:01.500Z,14.18
2023-03-29T19:55:29.368Z,12.77
2023-03-29T19:57:56.482Z,16.65
2023-03-29T20:00:25.104Z,17.30
2023-03-29T20:02:53.067Z,15.73
2023-03-29T20:05:20.266Z,15.40
2023-03-29T20:07:47.381Z,13.02
2023-03-29T20:10:14.480Z,13.73
2023-03-29T20:12:41.559Z,12.88
2023-03-29T20:15:08.923Z,14.23
2023-03-29T20:17:36.079Z,13.32
2023-03-29T20:20:08.258Z,14.40
2023-03-29T20:22:35.351Z,15.13
2023-03-29T20:25:02.420Z,15.15
2023-03-29T20:27:30.916Z,14.88
2023-03-29T20:29:57.947Z,17.30
2023-03-29T20:32:25.051Z,14.18
2023-03-29T20:34:52.065Z,11.77
2023-03-29T20:37:22.900Z,13.85
2023-03-29T20:39:50.077Z,14.63
2023-03-29T20:42:17.099Z,14.60
2023-03-29T20:44:50.399Z,15.60
2023-03-29T20:47:20.617Z,15.13
2023-03-29T20:49:47.659Z,11.30
2023-03-29T20:52:15.642Z,15.80
2023-03-29T20:54:46.247Z,11.85
2023-03-29T20:57:14.638Z,15.02
2023-03-29T20:59:42.787Z,14.32
2023-03-29T21:02:18.805Z,11.30
2023-03-29T21:04:49.761Z,13.50
2023-03-29T21:07:17.214Z,10.18
2023-03-29T21:09:44.305Z,13.10
2023-03-29T21:12:11.839Z,12.85
2023-03-29T21:14:39.546Z,13.88
2023-03-29T21:17:06.580Z,12.90
2023-03-29T21:19:33.615Z,10.10
2023-03-29T21:22:01.119Z,15.45
2023-03-29T21:24:28.268Z,10.98
2023-03-29T21:26:55.370Z,12.80
2023-03-29T21:29:22.405Z,14.15
2023-03-29T21:31:49.709Z,11.95
2023-03-29T21:34:16.848Z,9.00
2023-03-29T21:36:43.898Z,13.63
2023-03-29T21:39:10.958Z,11.68
2023-03-29T21:41:38.000Z,9.40
2023-03-29T21:44:05.254Z,10.23
2023-03-29T21:46:32.377Z,10.85
2023-03-29T21:48:59.482Z,11.57
2023-03-29T21:51:26.952Z,11.18
2023-03-29T21:53:54.064Z,12.75
2023-03-29T21:56:22.331Z,12.77
2023-03-29T21:58:49.632Z,12.50
2023-03-29T22:01:16.733Z,10.52
2023-03-29T22:03:44.255Z,10.18
2023-03-29T22:06:12.776Z,11.48
2023-03-29T22:08:39.991Z,9.00
2023-03-29T22:11:08.641Z,9.60
2023-03-29T22:13:36.695Z,8.32
2023-03-29T22:16:04.726Z,9.70
2023-03-29T22:18:46.661Z,12.32
2023-03-29T22:21:15.042Z,9.18
2023-03-29T22:23:42.595Z,10.45
2023-03-29T22:26:11.205Z,7.57
2023-03-29T22:28:38.682Z,9.10
2023-03-29T22:31:10.111Z,8.63
2023-03-29T22:33:37.586Z,9.80
2023-03-29T22:36:12.215Z,9.15
2023-03-29T22:38:39.318Z,8.93
2023-03-29T22:41:06.539Z,8.20
2023-03-29T22:43:33.633Z,8.55
2023-03-29T22:46:00.678Z,7.43
2023-03-29T22:48:27.771Z,10.63
2023-03-29T22:50:54.784Z,7.28
2023-03-29T22:53:22.021Z,8.48
2023-03-29T22:55:49.072Z,10.32
2023-03-29T22:58:16.308Z,10.00
2023-03-29T23:00:43.388Z,8.32
2023-03-29T23:03:10.781Z,7.72
2023-03-29T23:05:37.830Z,9.38
2023-03-29T23:08:07.305Z,8.90
2023-03-29T23:10:34.397Z,9.75
2023-03-29T23:13:08.853Z,10.13
2023-03-29T23:15:36.987Z,9.25
2023-03-29T23:18:05.010Z,7.68
2023-03-29T23:20:32.891Z,9.77
2023-03-29T23:23:00.620Z,5.72
2023-03-29T23:25:28.895Z,10.57
2023-03-29T23:27:56.540Z,8.57
2023-03-29T23:30:23.628Z,7.32
2023-03-29T23:32:52.437Z,7.78
2023-03-29T23:35:20.198Z,8.25
2023-03-29T23:37:47.756Z,8.77
2023-03-29T23:40:15.531Z,6.40
2023-03-29T23:42:43.287Z,7.85
2023-03-29T23:45:12.713Z,8.98
2023-03-29T23:47:40.191Z,7.72
2023-03-29T23:50:07.708Z,8.23
2023-03-29T23:52:35.536Z,6.15
2023-03-29T23:55:02.586Z,9.30
2023-03-29T23:57:29.651Z,5.90
